createdAt,value
2024-02-06T00:04:52.789Z,3.3
2024-02-06T00:10:54.764Z,3.3
2024-02-06T00:16:52.971Z,3
2024-02-06T00:22:52.894Z,2.9
2024-02-06T00:29:12.861Z,2.6
2024-02-06T00:35:27.894Z,2.3
2024-02-06T00:41:31.527Z,1.8
2024-02-06T00:47:39.204Z,1.9
2024-02-06T00:53:39.328Z,1.3
2024-02-06T01:00:01.166Z,1.2
2024-02-06T01:05:56.004Z,1.3
2024-02-06T01:12:10.177Z,1.3
2024-02-06T01:18:21.395Z,1.3
2024-02-06T01:24:15.344Z,1
2024-02-06T01:30:13.624Z,1
2024-02-06T01:36:19.342Z,1.5
2024-02-06T01:42:20.085Z,1.6
2024-02-06T01:48:16.651Z,1.8
2024-02-06T01:54:30.428Z,2.3
2024-02-06T02:00:47.497Z,2.2
2024-02-06T02:06:44.078Z,2.6
2024-02-06T02:12:39.200Z,2.8
2024-02-06T02:18:33.913Z,2.7
2024-02-06T02:24:28.907Z,3
2024-02-06T02:30:24.019Z,2.7
2024-02-06T02:36:33.479Z,2.8
2024-02-06T02:42:28.658Z,2.9
2024-02-06T02:48:36.523Z,2.7
2024-02-06T02:54:33.214Z,3
2024-02-06T03:00:35.280Z,3
2024-02-06T03:06:49.834Z,2.6
2024-02-06T03:12:57.017Z,3.2
2024-02-06T03:18:52.394Z,2.3
2024-02-06T03:24:45.660Z,2.5
2024-02-06T03:30:38.293Z,2.3
2024-02-06T03:36:38.374Z,2.6
2024-02-06T03:42:32.438Z,3.2
2024-02-06T03:48:43.092Z,2.5
2024-02-06T03:54:48.945Z,2.5
2024-02-06T04:00:44.444Z,3.1
2024-02-06T04:06:36.628Z,2.3
2024-02-06T04:12:31.400Z,2.7
2024-02-06T04:18:32.167Z,3
2024-02-06T04:24:26.175Z,2.7
2024-02-06T04:30:27.719Z,2.7
2024-02-06T04:36:18.158Z,3.1
2024-02-06T04:42:13.038Z,3.2
2024-02-06T04:48:10.941Z,3.3
2024-02-06T04:54:02.549Z,2.9
2024-02-06T04:59:59.874Z,2.5
2024-02-06T05:05:50.640Z,3.5
2024-02-06T05:11:41.911Z,4
2024-02-06T05:17:32.618Z,2.9
2024-02-06T05:23:23.206Z,3
2024-02-06T05:29:15.908Z,2.9
2024-02-06T06:47:06.670Z,3.1
2024-02-06T06:53:03.433Z,3.3
2024-02-06T06:59:15.561Z,3.3
2024-02-06T07:55:21.801Z,3.6
2024-02-06T08:01:21.987Z,4.6
2024-02-06T08:07:23.704Z,4.7
2024-02-06T08:19:10.942Z,4
2024-02-06T08:25:08.196Z,4.3
2024-02-06T08:31:13.476Z,4.4
2024-02-06T08:37:30.805Z,4.8
2024-02-06T08:43:35.490Z,4.1
2024-02-06T08:49:34.083Z,4.1
2024-02-06T08:55:42.339Z,4.2
2024-02-06T09:01:37.082Z,4.4
2024-02-06T09:07:34.404Z,4.5
2024-02-06T09:13:33.795Z,4.7
2024-02-06T09:19:28.701Z,4.1
2024-02-06T09:25:24.461Z,4.5
2024-02-06T09:37:36.852Z,4.1
2024-02-06T09:56:07.242Z,4.6
2024-02-06T11:13:26.866Z,6.9
2024-02-06T11:19:48.008Z,7.3
2024-02-06T12:07:53.208Z,7
2024-02-06T14:13:12.793Z,5.1
2024-02-06T14:30:47.582Z,4.2
2024-02-06T14:36:40.395Z,4.2
2024-02-06T14:42:32.709Z,3.9
2024-02-06T14:48:27.755Z,3.9
2024-02-06T14:54:35.147Z,4.2
2024-02-06T15:00:55.991Z,3.7
2024-02-06T15:06:58.067Z,3.6
2024-02-06T15:19:35.910Z,3.5
2024-02-06T15:26:18.003Z,4.5
2024-02-06T15:51:17.390Z,3.5
2024-02-06T15:57:09.262Z,5
2024-02-06T16:03:05.672Z,4.6
2024-02-06T16:09:33.292Z,4.1
2024-02-06T16:22:43.028Z,3.5
2024-02-06T16:28:53.263Z,3.2
2024-02-06T16:40:48.037Z,3.1
2024-02-06T16:46:38.992Z,3.3
2024-02-06T16:52:31.936Z,3
2024-02-06T16:58:25.472Z,3.6
2024-02-06T17:04:20.109Z,3.1
2024-02-06T17:10:11.448Z,2.8
2024-02-06T17:16:03.690Z,3.1
2024-02-06T17:21:56.225Z,3
2024-02-06T17:27:48.064Z,3.1
2024-02-06T17:33:41.094Z,3.1
2024-02-06T17:39:33.617Z,2.7
2024-02-06T17:45:26.210Z,3.1
2024-02-06T17:51:18.664Z,3.1
2024-02-06T17:57:11.330Z,2.8
2024-02-06T18:03:03.663Z,2.9
2024-02-06T18:08:55.841Z,3.2
2024-02-06T18:14:48.918Z,3
2024-02-06T18:20:40.920Z,2.6
2024-02-06T18:26:32.785Z,3.5
2024-02-06T18:32:25.301Z,3.2
2024-02-06T18:38:16.671Z,3.7
2024-02-06T18:44:08.335Z,3.2
2024-02-06T18:50:02.432Z,3
2024-02-06T18:55:56.385Z,3.3
2024-02-06T19:01:49.202Z,3.1
2024-02-06T19:07:42.261Z,3
2024-02-06T19:13:35.457Z,3.3
2024-02-06T19:19:28.653Z,3.6
2024-02-06T19:25:21.378Z,2.9
2024-02-06T19:31:13.971Z,2.7
2024-02-06T19:37:06.990Z,2.6
2024-02-06T19:43:01.419Z,2.6
2024-02-06T19:48:54.635Z,3.1
2024-02-06T19:54:48.476Z,3.2
2024-02-06T20:00:41.824Z,3.8
2024-02-06T20:06:34.858Z,3.5
2024-02-06T20:12:27.385Z,3.6
2024-02-06T20:18:20.869Z,3.9
2024-02-06T20:24:13.899Z,3.9
2024-02-06T20:30:06.712Z,4.9
2024-02-06T20:35:58.980Z,4.7
2024-02-06T20:41:51.991Z,4.4
2024-02-06T20:47:44.870Z,5.1
2024-02-06T20:53:38.669Z,4.3
2024-02-06T20:59:30.970Z,4.4
2024-02-06T21:05:23.055Z,3.8
2024-02-06T21:11:18.121Z,3.9
2024-02-06T21:17:12.582Z,4
2024-02-06T21:23:04.576Z,4.2
2024-02-06T21:28:56.966Z,4.5
2024-02-06T21:34:50.158Z,4.3
2024-02-06T21:40:42.668Z,4.3
2024-02-06T21:46:36.642Z,5.2
2024-02-06T21:52:28.641Z,4.6
2024-02-06T21:58:20.837Z,4.2
2024-02-06T22:04:13.921Z,4.1
2024-02-06T22:10:08.342Z,4.2
2024-02-06T22:16:01.112Z,4
2024-02-06T22:21:53.653Z,4.2
2024-02-06T22:27:46.036Z,4.5
2024-02-06T22:33:40.567Z,4.5
2024-02-06T22:39:33.783Z,4.5
